Latest Weather Observations for Gunnedah Airport

IDN60801

Issued at 11:33 pm EST Tuesday 26 May 2015 (issued every 30 minutes, with the page automatically refreshed every 10 minutes)

About weather observations | Map of weather stations | Latest weather observations for NSW | Other Formats
Station Details ID: 055202 Name: GUNNEDAH AIRPORT AWS Lat: -30.95 Lon: 150.25 Height: 262.57 m
Data from the previous 72 hours. | See also: Recent months at Gunnedah Airport
Date/Time
EST
Temp
°C
App
Temp
°C
Dew
Point
Rel
Hum
%
Delta-T
°C
Wind Press
QNH
hPa
Press
MSL
hPa
Rain
since 9 am
mm
Dir
 
Spd
km/h
Gust
km/h
Spd
kts
Gust
kts
26/11:30pm 8.2 6.3 6.8 91 0.7 SE 6 7 3 4 1025.8 1025.7 0.0
26/11:00pm 9.0 7.8 7.9 93 0.5 S 4 7 2 4 1026.0 1026.0 0.0
26/10:30pm 8.6 6.9 7.4 92 0.6 S 6 7 3 4 1026.1 1026.1 0.0
26/10:00pm 8.7 6.7 7.3 91 0.7 SSE 7 9 4 5 1026.3 1026.2 0.0
26/09:30pm 8.7 7.0 7.5 92 0.6 SSW 6 11 3 6 1026.8 1026.7 0.0
26/09:00pm 9.1 8.6 7.9 92 0.6 CALM 0 0 0 0 1026.6 1026.5 0.0
26/08:30pm 9.5 9.1 8.3 92 0.6 CALM 0 0 0 0 1026.5 1026.4 0.0
26/08:00pm 9.7 9.2 8.0 89 0.8 CALM 0 0 0 0 1026.6 1026.5 0.0
26/07:30pm 10.6 10.1 7.8 83 1.4 CALM 0 0 0 0 1026.6 1026.5 0.0
26/07:00pm 11.7 11.5 8.9 83 1.4 CALM 0 0 0 0 1026.6 1026.5 0.0
26/06:30pm 11.7 11.4 8.7 82 1.5 CALM 0 0 0 0 1026.1 1026.1 0.0
26/06:00pm 12.0 11.7 8.5 79 1.7 CALM 0 0 0 0 1025.9 1025.8 0.0
26/05:30pm 12.6 12.4 9.2 80 1.7 CALM 0 0 0 0 1025.7 1025.6 0.0
26/05:00pm 13.7 13.6 9.4 75 2.2 CALM 0 0 0 0 1025.4 1025.3 0.0
26/04:30pm 15.2 15.1 9.6 69 2.9 CALM 0 0 0 0 1025.8 1025.7 0.0
26/04:00pm 15.6 15.3 8.8 64 3.5 CALM 0 0 0 0 1026.0 1026.0 0.0
26/03:30pm 15.8 15.6 9.2 65 3.4 CALM 0 0 0 0 1026.1 1026.1 0.0
26/03:00pm 16.0 15.4 7.5 57 4.3 CALM 0 0 0 0 1026.4 1026.3 0.0
26/02:30pm 16.7 16.1 7.6 55 4.6 CALM 0 0 0 0 1026.9 1026.8 0.0
26/02:00pm 16.2 15.8 8.2 59 4.1 CALM 0 0 0 0 1026.9 1026.8 0.0
26/01:30pm 15.8 15.6 9.0 64 3.5 CALM 0 0 0 0 1027.3 1027.2 0.0
26/01:00pm 15.2 14.9 8.7 65 3.3 CALM 0 0 0 0 1027.7 1027.6 0.0
26/12:30pm 15.1 13.7 8.8 66 3.2 NE 6 9 3 5 1028.1 1028.0 0.0
26/12:00pm 14.6 13.1 8.5 67 3.1 ENE 6 11 3 6 1028.6 1028.5 0.0
26/11:30am 14.0 12.0 8.8 71 2.7 ESE 9 11 5 6 1029.1 1029.0 0.0
26/11:00am 13.3 11.1 9.2 76 2.1 SE 11 13 6 7 1029.4 1029.4 0.0
26/10:30am 12.4 10.0 8.7 78 1.9 SE 11 15 6 8 1029.6 1029.6 0.0
26/10:00am 11.6 9.2 8.8 83 1.4 SE 11 13 6 7 1029.8 1029.8 0.0
26/09:30am 10.6 8.5 8.4 86 1.1 SE 9 11 5 6 1029.9 1029.9 0.0
26/09:00am 10.0 7.4 7.9 87 1.0 SE 11 15 6 8 1029.7 1029.7 0.0
26/08:30am 9.7 7.5 8.0 89 0.8 SE 9 11 5 6 1029.9 1029.9 0.0
26/08:00am 9.2 6.7 8.0 92 0.6 SE 11 13 6 7 1029.6 1029.6 0.0
26/07:30am 8.5 5.1 7.6 94 0.4 SE 15 17 8 9 1029.4 1029.4 0.0
26/07:00am 7.1 4.1 6.0 93 0.5 SSE 11 13 6 7 1029.0 1028.9 0.0
26/06:30am 7.0 4.8 6.1 94 0.4 ESE 7 7 4 4 1028.5 1028.4 0.0
26/06:00am 6.9 4.7 6.0 94 0.4 SE 7 11 4 6 1028.4 1028.3 0.0
26/05:30am 6.5 3.4 5.5 93 0.4 SE 11 15 6 8 1028.3 1028.2 0.0
26/05:00am 6.1 3.8 4.9 92 0.5 ESE 6 7 3 4 1028.5 1028.4 0.0
26/04:30am 6.5 4.2 5.5 93 0.4 SE 7 11 4 6 1028.6 1028.5 0.0
26/04:00am 6.6 3.9 5.4 92 0.5 ESE 9 11 5 6 1028.6 1028.5 0.0
26/03:30am 6.9 4.7 6.0 94 0.4 SSE 7 9 4 5 1028.7 1028.6 0.0
26/03:00am 5.7 2.4 4.7 93 0.4 SSE 11 13 6 7 1028.9 1028.8 0.0
26/02:30am 6.1 3.9 5.1 93 0.4 SSE 6 7 3 4 1029.2 1029.1 0.0
26/02:00am 5.8 2.9 4.8 93 0.4 S 9 9 5 5 1029.2 1029.1 0.0
26/01:30am 7.1 6.2 6.0 93 0.5 CALM 0 0 0 0 1029.0 1028.9 0.0
26/01:00am 6.5 5.4 5.1 91 0.6 CALM 0 4 0 2 1029.0 1028.9 0.0
26/12:30am 7.7 5.7 6.2 90 0.7 ENE 6 7 3 4 1029.8 1029.8 0.0
26/12:00am 7.1 4.4 5.7 91 0.6 ESE 9 13 5 7 1029.8 1029.8 0.0
 
Date/Time
EST
Temp
°C
App
Temp
°C
Dew
Point
Rel
Hum
%
Delta-T
°C
Wind Press
QNH
hPa
Press
MSL
hPa
Rain
since 9 am
mm
Dir
 
Spd
km/h
Gust
km/h
Spd
kts
Gust
kts
25/11:30pm 6.8 4.4 5.1 89 0.8 ESE 7 7 4 4 1029.8 1029.8 0.0
25/11:00pm 7.8 5.5 5.6 86 1.0 SSE 7 7 4 4 1029.9 1029.9 0.0
25/10:30pm 8.5 7.7 6.5 87 0.9 CALM 0 0 0 0 1029.5 1029.5 0.0
25/10:00pm 8.7 6.8 6.5 86 1.0 ENE 6 7 3 4 1029.3 1029.3 0.0
25/09:30pm 10.4 8.1 7.5 82 1.4 SSE 9 11 5 6 1029.5 1029.5 0.0
25/09:00pm 10.6 8.0 7.8 83 1.4 S 11 13 6 7 1030.0 1030.0 0.0
25/08:30pm 12.0 10.3 8.5 79 1.8 S 7 9 4 5 1030.0 1030.0 0.0
25/08:00pm 12.5 11.3 8.2 75 2.1 SSE 4 9 2 5 1030.0 1030.0 0.0
25/07:30pm 12.9 12.6 8.8 76 2.1 CALM 0 0 0 0 1030.0 1030.0 0.0
25/07:00pm 13.3 11.8 8.6 73 2.4 SSE 6 6 3 3 1029.8 1029.8 0.0
25/06:30pm 13.8 12.2 8.6 71 2.6 SSE 7 7 4 4 1029.5 1029.5 0.0
25/06:00pm 13.3 11.6 8.4 72 2.5 SE 7 9 4 5 1029.1 1029.0 0.0
25/05:30pm 13.9 12.3 8.1 68 2.9 SE 6 9 3 5 1028.8 1028.7 0.0
25/05:00pm 16.3 15.9 8.3 59 4.1 CALM 0 0 0 0 1028.7 1028.6 0.0
25/04:30pm 17.3 16.9 8.4 56 4.6 CALM 0 0 0 0 1028.5 1028.4 0.0
25/04:00pm 18.3 17.5 8.0 51 5.3 SW 2 6 1 3 1028.7 1028.6 0.0
25/03:30pm 18.9 16.4 6.4 44 6.3 WNW 9 11 5 6 1028.9 1028.8 0.0
25/03:00pm 19.3 16.7 6.1 42 6.6 NW 9 15 5 8 1028.5 1028.4 0.0
25/02:30pm 19.3 17.1 6.4 43 6.5 NNW 7 13 4 7 1028.7 1028.6 0.0
25/02:00pm 20.1 17.6 8.1 46 6.3 NW 11 13 6 7 1029.6 1029.6 0.0
25/01:30pm 19.7 17.7 7.1 44 6.5 SW 7 13 4 7 1029.6 1029.6 0.0
25/01:00pm 18.6 16.6 6.4 45 6.1 SW 6 9 3 5 1029.9 1029.9 0.0
25/12:30pm 18.5 16.9 8.2 51 5.4 SSE 6 9 3 5 1030.4 1030.3 0.0
25/12:00pm 18.0 16.4 8.0 52 5.1 E 6 11 3 6 1030.8 1030.7 0.0
25/11:30am 16.6 15.1 8.6 59 4.1 ESE 6 9 3 5 1031.4 1031.3 0.0
25/11:00am 15.6 13.5 8.4 62 3.7 ESE 9 13 5 7 1031.9 1031.8 0.0
25/10:30am 14.4 12.3 8.4 67 3.1 E 9 15 5 8 1032.4 1032.3 0.0
25/10:00am 12.9 10.4 8.2 73 2.3 ESE 11 15 6 8 1032.8 1032.8 0.0
25/09:30am 11.5 8.9 7.6 77 1.9 SE 11 15 6 8 1032.8 1032.8 0.0
25/09:00am 10.9 8.5 6.8 76 2.0 ESE 9 13 5 7 1032.7 1032.7 0.0
25/08:30am 10.2 6.9 6.5 78 1.8 SE 13 15 7 8 1032.4 1032.3 0.0
25/08:00am 9.3 6.4 6.4 82 1.4 SE 11 15 6 8 1032.0 1031.9 0.0
25/07:30am 8.5 5.6 6.5 87 0.9 SE 11 13 6 7 1031.7 1031.6 0.0
25/07:00am 7.4 4.0 5.9 90 0.7 SE 13 15 7 8 1031.5 1031.4 0.0
25/06:30am 6.7 3.8 4.9 88 0.8 SE 9 11 5 6 1031.3 1031.2 0.0
25/06:00am 6.3 2.7 4.9 91 0.6 SSE 13 15 7 8 1030.8 1030.7 0.0
25/05:30am 6.4 3.2 5.0 91 0.6 SE 11 13 6 7 1030.4 1030.3 0.0
25/05:00am 5.6 2.6 4.1 90 0.6 SSE 9 11 5 6 1030.7 1030.6 0.0
25/04:30am 6.5 3.3 5.3 92 0.5 SE 11 15 6 8 1030.4 1030.3 0.0
25/04:00am 5.6 2.2 4.2 91 0.6 SE 11 11 6 6 1030.8 1030.7 0.0
25/03:30am 6.0 2.7 4.8 92 0.5 SE 11 11 6 6 1030.6 1030.5 0.0
25/03:00am 5.3 1.9 4.1 92 0.5 SSE 11 13 6 7 1030.9 1030.8 0.0
25/02:30am 5.2 2.2 4.0 92 0.5 SE 9 11 5 6 1030.8 1030.7 0.0
25/02:00am 5.1 2.0 3.8 91 0.5 SE 9 11 5 6 1031.1 1031.0 0.0
25/01:30am 5.5 2.4 3.8 89 0.7 ESE 9 11 5 6 1031.2 1031.1 0.0
25/01:00am 6.9 3.7 5.1 88 0.8 SE 11 15 6 8 1031.2 1031.1 0.0
25/12:30am 7.3 3.8 5.4 88 0.9 SE 13 15 7 8 1031.1 1031.0 0.0
25/12:00am 8.0 5.0 5.8 86 1.0 SE 11 13 6 7 1031.0 1030.9 0.0
 
Date/Time
EST
Temp
°C
App
Temp
°C
Dew
Point
Rel
Hum
%
Delta-T
°C
Wind Press
QNH
hPa
Press
MSL
hPa
Rain
since 9 am
mm
Dir
 
Spd
km/h
Gust
km/h
Spd
kts
Gust
kts
24/11:30pm 9.2 5.9 6.3 82 1.4 SE 13 17 7 9 1031.1 1031.0 0.0
24/11:00pm 9.8 6.6 6.7 81 1.5 SE 13 17 7 9 1031.3 1031.2 0.0
24/10:30pm 9.8 6.6 6.7 81 1.5 SE 13 15 7 8 1031.3 1031.2 0.0
24/10:00pm 7.9 4.9 6.2 89 0.8 SE 11 13 6 7 1031.0 1030.9 0.0
24/09:30pm 8.0 5.8 5.3 83 1.2 ESE 6 7 3 4 1031.1 1031.0 0.0
24/09:00pm 8.1 5.3 5.0 81 1.4 SE 9 11 5 6 1030.8 1030.7 0.0
24/08:30pm 8.3 5.5 5.1 80 1.4 SE 9 11 5 6 1030.9 1030.8 0.0
24/08:00pm 8.1 5.2 4.9 80 1.4 ESE 9 11 5 6 1030.7 1030.6 0.0
24/07:30pm 8.8 6.2 4.4 74 2.0 SSE 7 7 4 4 1030.6 1030.5 0.0
24/07:00pm 10.0 7.2 5.2 72 2.2 SSW 9 9 5 5 1030.5 1030.4 0.0
24/06:30pm 10.5 7.0 5.3 70 2.4 SSW 13 13 7 7 1030.0 1030.0 0.0
24/06:00pm 12.0 9.7 5.6 65 3.0 SSW 7 11 4 6 1029.6 1029.6 0.0
24/05:30pm 13.2 10.1 5.4 59 3.7 SSE 11 13 6 7 1029.4 1029.4 0.0
24/05:00pm 15.0 11.5 5.5 53 4.5 SSE 13 17 7 9 1029.2 1029.1 0.0
24/04:30pm 17.2 14.6 6.1 48 5.5 SSE 9 13 5 7 1029.1 1029.0 0.0
24/04:00pm 17.6 14.3 4.5 42 6.3 ESE 11 13 6 7 1029.1 1029.0 0.0
24/03:30pm 18.7 16.3 5.2 41 6.6 SSE 7 13 4 7 1028.9 1028.8 0.0
24/03:00pm 18.3 15.5 5.2 42 6.4 SE 9 13 5 7 1028.9 1028.8 0.0
24/02:30pm 18.5 14.9 5.0 41 6.6 SE 13 19 7 10 1029.1 1029.0 0.0
24/02:00pm 18.4 15.8 6.3 45 6.0 E 9 15 5 8 1029.0 1028.9 0.0
24/01:30pm 17.5 14.2 6.4 48 5.5 ESE 13 20 7 11 1029.3 1029.3 0.0
24/01:00pm 17.6 14.8 7.1 50 5.3 ESE 11 19 6 10 1029.6 1029.6 0.0
24/12:30pm 17.6 14.5 7.4 51 5.2 ESE 13 19 7 10 1030.0 1030.0 0.0
24/12:00pm 16.7 13.6 7.1 53 4.8 SE 13 17 7 9 1030.6 1030.5 0.0
24/11:30am 15.9 13.1 7.1 56 4.4 SE 11 17 6 9 1031.1 1031.0 0.0
24/11:00am 14.8 12.7 8.3 65 3.3 ESE 9 13 5 7 1031.6 1031.5 0.0
24/10:30am 13.7 11.3 8.7 72 2.6 SE 11 15 6 8 1031.8 1031.7 0.0
24/10:00am 12.2 9.6 7.7 74 2.2 SE 11 15 6 8 1032.0 1031.9 0.0
24/09:30am 11.3 9.2 8.3 82 1.5 ESE 9 13 5 7 1032.1 1032.0 0.0
24/09:00am 10.0 6.9 7.3 83 1.3 SE 13 17 7 9 1031.9 1031.8 0.0
24/08:30am 9.1 6.0 7.1 87 1.0 SE 13 20 7 11 1031.6 1031.5 0.0
24/08:00am 8.1 4.8 6.6 90 0.7 SE 13 17 7 9 1031.6 1031.5 0.0
24/07:30am 7.1 3.8 6.4 95 0.3 SE 13 17 7 9 1031.3 1031.2 0.0
24/07:00am 5.9 2.3 5.0 94 0.4 SE 13 17 7 9 1030.8 1030.7 0.0
24/06:30am 4.6 0.7 3.6 93 0.4 SSE 13 15 7 8 1030.7 1030.6 0.0
24/06:00am 5.1 1.7 4.2 94 0.4 ESE 11 13 6 7 1030.3 1030.2 0.0
24/05:30am 5.5 1.8 4.6 94 0.4 ESE 13 15 7 8 1029.8 1029.8 0.0
24/05:00am 5.9 2.0 5.2 95 0.3 SE 15 17 8 9 1029.4 1029.4 0.0
24/04:30am 4.7 1.6 3.8 94 0.4 ESE 9 11 5 6 1029.2 1029.1 0.0
24/04:00am 4.6 1.5 3.7 94 0.4 ESE 9 11 5 6 1029.0 1028.9 0.0
24/03:30am 4.1 0.9 3.1 93 0.4 E 9 11 5 6 1028.8 1028.7 0.0
24/03:00am 3.7 0.8 2.7 93 0.4 NE 7 9 4 5 1028.9 1028.8 0.0
24/02:30am 4.2 1.4 3.2 93 0.4 NE 7 9 4 5 1028.7 1028.6 0.0
24/02:00am 4.5 1.7 3.3 92 0.5 SE 7 9 4 5 1028.7 1028.6 0.0
24/01:30am 4.9 3.5 3.7 92 0.5 CALM 0 0 0 0 1028.6 1028.5 0.0
24/01:00am 5.5 3.0 3.8 89 0.7 NNE 6 9 3 5 1028.8 1028.7 0.0
24/12:30am 6.4 4.3 4.1 85 1.0 NE 4 7 2 4 1028.9 1028.8 0.0
24/12:00am 9.3 6.1 6.7 84 1.2 SE 13 17 7 9 1028.7 1028.6 0.0

Other Formats:

Comma delimited format used in spreadsheet applications
http://www.bom.gov.au/fwo/IDN60801/IDN60801.95740.axf

JavaScript Object Notation format (JSON) in row-major order
http://www.bom.gov.au/fwo/IDN60801/IDN60801.95740.json